Time;durP1;ratioP1;P1;durP2;ratioP2;P2;SDS_P1;SDS_P2;PMS_P1;PMS_P2;Temp;Humidity;BMP_temperature;BMP_pressure;BME280_temperature;BME280_humidity;BME280_pressure;Samples;Min_cycle;Max_cycle;Signal;HPM_P1;HPM_P2
2022/04/19 00:00:06;;;;;;;14.27;8.98;;;;;;;13.32;46.49;101385.50;4900957;29;20064;-50
2022/04/19 00:02:36;;;;;;;13.95;8.75;;;;;;;13.34;46.55;101387.97;4899910;29;20084;-52
2022/04/19 00:05:04;;;;;;;11.75;7.93;;;;;;;13.37;46.19;101381.94;4896904;29;20100;-50
2022/04/19 00:07:32;;;;;;;13.95;8.50;;;;;;;13.36;45.80;101386.63;4890123;29;20044;-48
2022/04/19 00:09:59;;;;;;;13.63;8.68;;;;;;;13.35;45.20;101373.22;4900342;29;20056;-48
2022/04/19 00:12:27;;;;;;;13.65;8.77;;;;;;;13.36;45.79;101377.59;4900015;29;20045;-49
2022/04/19 00:14:54;;;;;;;13.43;8.63;;;;;;;13.36;45.64;101378.41;4899532;29;20056;-50
2022/04/19 00:17:22;;;;;;;13.02;8.80;;;;;;;13.33;45.30;101386.34;4895719;29;20049;-50
2022/04/19 00:19:50;;;;;;;13.82;8.98;;;;;;;13.27;46.25;101382.78;4880527;29;20061;-49
2022/04/19 00:22:19;;;;;;;18.05;9.45;;;;;;;13.21;46.49;101379.19;4892673;29;20047;-49
2022/04/19 00:24:47;;;;;;;17.30;9.45;;;;;;;13.15;45.82;101383.00;4899054;29;20508;-51
2022/04/19 00:27:15;;;;;;;14.98;9.43;;;;;;;13.09;46.29;101386.84;4899679;29;20415;-51
2022/04/19 00:29:42;;;;;;;22.30;12.48;;;;;;;13.06;46.75;101381.91;4898888;29;20047;-51
2022/04/19 00:32:11;;;;;;;24.65;13.45;;;;;;;13.04;46.85;101377.81;4899066;29;20496;-51
2022/04/19 00:34:39;;;;;;;26.45;14.90;;;;;;;13.04;47.15;101378.63;4885449;29;20048;-49
2022/04/19 00:37:07;;;;;;;27.42;14.98;;;;;;;12.99;47.33;101373.16;4899938;29;20124;-51
2022/04/19 00:39:35;;;;;;;31.00;14.88;;;;;;;12.94;47.72;101378.56;4899504;29;20127;-51
2022/04/19 00:42:03;;;;;;;24.40;13.98;;;;;;;12.92;47.55;101372.59;4898285;29;20564;-52
2022/04/19 00:44:33;;;;;;;20.10;12.07;;;;;;;12.90;47.59;101374.75;4898368;29;20563;-48
2022/04/19 00:47:01;;;;;;;19.00;11.30;;;;;;;12.86;48.04;101370.91;4897388;29;20092;-48
2022/04/19 00:49:29;;;;;;;16.95;10.00;;;;;;;12.82;48.40;101373.38;4898208;29;20052;-49
2022/04/19 00:51:57;;;;;;;17.10;10.73;;;;;;;12.84;48.50;101373.09;4899208;29;20041;-48
2022/04/19 00:54:27;;;;;;;17.08;10.02;;;;;;;12.87;48.76;101367.06;4909324;29;20040;-52
2022/04/19 00:56:54;;;;;;;16.17;9.77;;;;;;;12.91;48.01;101373.66;4898202;29;20045;-53
2022/04/19 00:59:24;;;;;;;14.90;9.65;;;;;;;12.92;48.58;101369.84;4898346;29;20416;-49
2022/04/19 01:01:52;;;;;;;14.27;8.82;;;;;;;12.94;48.21;101381.31;4879005;29;20139;-50
2022/04/19 01:04:20;;;;;;;12.82;8.13;;;;;;;12.94;49.01;101375.84;4881482;29;20048;-48
2022/04/19 01:06:48;;;;;;;13.85;8.10;;;;;;;12.93;48.37;101376.94;4879243;29;20413;-48
2022/04/19 01:09:16;;;;;;;14.38;7.88;;;;;;;12.91;48.52;101370.91;4879439;29;20097;-49
2022/04/19 01:14:32;;;;;;;12.95;7.95;;;;;;;12.82;48.85;101370.66;4896862;29;20040;-48
2022/04/19 01:17:00;;;;;;;11.18;7.63;;;;;;;12.78;48.82;101367.63;4882467;29;20041;-45
2022/04/19 01:19:31;;;;;;;14.15;8.00;;;;;;;12.76;48.79;101372.53;4878556;29;20127;-49
2022/04/19 01:22:01;;;;;;;12.48;7.93;;;;;;;12.74;48.55;101371.16;4897598;29;20571;-52
2022/04/19 01:24:33;;;;;;;10.95;7.07;;;;;;;12.66;49.37;101372.50;4897880;29;20045;-51
2022/04/19 01:27:01;;;;;;;11.50;7.72;;;;;;;12.57;49.46;101371.38;4896927;29;20067;-53
2022/04/19 01:29:29;;;;;;;11.45;7.40;;;;;;;12.49;49.80;101366.44;4897412;29;20504;-50
2022/04/19 01:32:03;;;;;;;11.60;8.02;;;;;;;12.45;49.75;101365.31;4897528;29;20040;-51
2022/04/19 01:34:32;;;;;;;13.57;8.18;;;;;;;12.40;50.42;101368.03;4909994;29;20408;-48
2022/04/19 01:37:02;;;;;;;11.80;7.53;;;;;;;12.30;50.72;101357.88;4878927;29;20041;-51
2022/04/19 01:42:16;;;;;;;12.77;7.65;;;;;;;12.15;50.90;101361.34;4897347;29;20040;-53
2022/04/19 01:44:53;;;;;;;11.93;7.78;;;;;;;12.06;51.33;101357.47;4897090;29;20408;-50
2022/04/19 01:47:21;;;;;;;13.25;7.95;;;;;;;12.01;50.96;101355.53;4897308;29;20048;-52
2022/04/19 01:49:51;;;;;;;11.30;7.20;;;;;;;12.01;50.83;101354.72;4896071;29;20045;-49
2022/04/19 01:52:19;;;;;;;13.23;8.18;;;;;;;11.99;50.70;101348.69;4896473;29;20059;-53
2022/04/19 01:54:48;;;;;;;13.15;8.27;;;;;;;11.96;51.26;101354.69;4896960;29;20037;-53
2022/04/19 01:57:25;;;;;;;10.80;7.75;;;;;;;11.85;50.96;101349.13;4896256;29;20044;-52
2022/04/19 01:59:53;;;;;;;14.82;7.35;;;;;;;11.78;51.07;101355.91;4897684;29;20064;-48
2022/04/19 02:02:43;;;;;;;12.52;8.13;;;;;;;11.71;51.43;101348.78;4897812;29;20048;-48
2022/04/19 02:05:13;;;;;;;12.57;8.27;;;;;;;11.71;51.53;101345.19;4897295;29;20040;-51
2022/04/19 02:07:45;;;;;;;12.55;8.15;;;;;;;11.78;50.97;101351.25;4895853;29;20136;-48
2022/04/19 02:10:15;;;;;;;12.57;7.88;;;;;;;11.86;50.32;101342.59;4878364;29;20064;-49
2022/04/19 02:12:45;;;;;;;11.65;7.28;;;;;;;11.90;49.94;101342.91;4878791;29;20045;-53
2022/04/19 02:15:43;;;;;;;12.18;7.57;;;;;;;11.92;49.32;101341.56;4897558;29;20047;-52
2022/04/19 02:18:21;;;;;;;10.55;7.55;;;;;;;11.98;49.78;101333.38;4928250;29;20136;-49
2022/04/19 02:20:48;;;;;;;11.35;7.28;;;;;;;12.02;49.04;101342.69;4898038;29;20045;-53
2022/04/19 02:23:16;;;;;;;13.32;7.70;;;;;;;12.05;48.66;101331.25;4896584;29;20052;-52
2022/04/19 02:25:45;;;;;;;11.95;7.63;;;;;;;12.07;48.76;101329.06;4864973;29;20655;-52
2022/04/19 02:28:14;;;;;;;11.43;7.80;;;;;;;12.08;48.79;101333.47;4878211;29;20647;-52
2022/04/19 02:30:47;;;;;;;11.10;7.53;;;;;;;12.00;49.41;101331.22;4899245;29;20083;-53
2022/04/19 02:33:22;;;;;;;10.95;7.32;;;;;;;11.95;49.05;101332.00;4900714;29;20053;-54
2022/04/19 02:35:52;;;;;;;12.82;8.23;;;;;;;11.93;50.11;101329.56;4901198;29;20045;-48
2022/04/19 02:38:20;;;;;;;12.55;7.80;;;;;;;11.93;49.25;101326.81;4899673;29;20044;-50
2022/04/19 02:40:49;;;;;;;11.80;7.38;;;;;;;11.96;49.89;101330.13;4900026;29;20491;-54
2022/04/19 02:43:18;;;;;;;14.32;8.32;;;;;;;11.96;48.98;101330.94;4900322;29;20116;-53
2022/04/19 02:45:52;;;;;;;11.68;7.75;;;;;;;11.94;49.15;101325.72;4900135;29;20128;-53
2022/04/19 02:48:30;;;;;;;11.98;7.57;;;;;;;11.94;49.96;101328.47;4900541;29;20100;-52
2022/04/19 02:51:00;;;;;;;12.70;7.68;;;;;;;11.93;49.10;101326.81;4899412;29;20504;-51
2022/04/19 02:53:28;;;;;;;11.52;7.65;;;;;;;11.90;49.43;101324.59;4898977;29;20440;-54
2022/04/19 02:55:55;;;;;;;11.30;7.65;;;;;;;11.86;49.30;101331.66;4900226;29;20037;-52
2022/04/19 02:58:25;;;;;;;12.75;7.50;;;;;;;11.86;49.61;101326.22;4884506;29;20072;-53
2022/04/19 03:00:55;;;;;;;13.13;7.38;;;;;;;11.82;50.12;101330.53;4900570;29;20037;-50
2022/04/19 03:03:23;;;;;;;13.32;7.63;;;;;;;11.80;49.47;101327.25;4900270;29;20048;-52
2022/04/19 03:05:52;;;;;;;11.00;7.57;;;;;;;11.81;49.55;101330.78;4898950;29;20124;-50
2022/04/19 03:08:20;;;;;;;13.25;7.70;;;;;;;11.80;49.51;101329.97;4899719;29;20044;-52
2022/04/19 03:10:49;;;;;;;12.30;7.43;;;;;;;11.79;49.63;101331.09;4899258;29;20040;-47
2022/04/19 03:13:17;;;;;;;14.75;8.18;;;;;;;11.78;50.12;101320.41;4912840;29;20048;-47
2022/04/19 03:15:45;;;;;;;13.00;7.22;;;;;;;11.75;50.64;101327.22;4871843;29;20040;-52
2022/04/19 03:18:14;;;;;;;11.10;7.75;;;;;;;11.70;50.25;101324.47;4898843;29;20037;-48
2022/04/19 03:20:45;;;;;;;13.35;7.18;;;;;;;11.66;50.99;101326.06;4915960;29;20056;-51
2022/04/19 03:28:53;;;;;;;;;;;;;;;11.66;50.45;101326.88;4899138;29;20053;-51
2022/04/19 03:31:24;;;;;;;14.02;7.63;;;;;;;11.52;50.34;101320.25;4898675;29;19947;-53
2022/04/19 03:33:54;;;;;;;12.05;8.18;;;;;;;11.34;51.00;101326.94;4899872;29;20047;-54
2022/04/19 03:36:24;;;;;;;15.02;8.50;;;;;;;11.24;51.66;101324.13;4899145;29;20556;-53
2022/04/19 03:38:53;;;;;;;12.02;7.65;;;;;;;11.12;52.23;101318.03;4899773;29;20053;-54
2022/04/19 03:41:22;;;;;;;13.02;8.13;;;;;;;10.97;52.00;101319.53;4899154;29;20044;-54
2022/04/19 03:43:51;;;;;;;11.55;7.65;;;;;;;10.96;52.61;101317.88;4899007;29;20044;-50
2022/04/19 03:46:20;;;;;;;12.40;8.38;;;;;;;11.03;53.08;101318.47;4899133;29;20044;-52
2022/04/19 03:48:48;;;;;;;13.40;7.75;;;;;;;11.15;52.54;101321.03;4899439;29;20047;-55
2022/04/19 03:51:15;;;;;;;11.75;7.68;;;;;;;11.19;52.01;101318.63;4898807;29;20464;-55
2022/04/19 03:53:46;;;;;;;12.82;7.55;;;;;;;11.22;52.24;101321.66;4899292;29;20045;-54
2022/04/19 03:56:15;;;;;;;13.00;8.23;;;;;;;11.21;51.43;101319.22;4898019;29;20051;-47
2022/04/19 03:58:43;;;;;;;13.25;8.43;;;;;;;11.20;51.59;101328.44;4899383;29;20103;-47
2022/04/19 04:01:14;;;;;;;12.20;8.25;;;;;;;11.13;51.43;101327.84;4899327;29;20045;-47
2022/04/19 04:03:43;;;;;;;14.25;8.32;;;;;;;11.12;52.21;101326.22;4899360;29;20123;-54
2022/04/19 04:06:11;;;;;;;14.02;8.43;;;;;;;11.15;51.90;101326.50;4883117;29;20500;-55
2022/04/19 04:08:39;;;;;;;12.32;8.25;;;;;;;11.19;51.70;101326.81;4897888;29;20092;-51
2022/04/19 04:11:07;;;;;;;12.43;8.48;;;;;;;11.20;51.68;101326.53;4900975;29;20049;-52
2022/04/19 04:13:41;;;;;;;13.13;9.05;;;;;;;11.18;50.96;101330.59;4885280;29;20070;-53
2022/04/19 04:16:10;;;;;;;14.00;8.45;;;;;;;11.12;51.20;101326.22;4898076;29;20044;-53
2022/04/19 04:18:39;;;;;;;13.90;8.55;;;;;;;11.07;51.43;101325.06;4898208;29;20127;-53
2022/04/19 04:21:07;;;;;;;15.00;8.27;;;;;;;11.07;51.96;101325.06;4898823;29;20059;-52
2022/04/19 04:23:35;;;;;;;15.88;8.27;;;;;;;11.08;51.36;101329.44;4898658;29;20559;-53
2022/04/19 04:26:10;;;;;;;15.45;8.90;;;;;;;10.97;52.03;101335.91;4897548;29;20096;-56
2022/04/19 04:28:38;;;;;;;15.02;8.48;;;;;;;10.83;51.96;101340.13;4898476;29;20037;-53
2022/04/19 04:31:08;;;;;;;13.43;8.60;;;;;;;10.76;52.52;101339.50;4867704;29;20072;-53
2022/04/19 04:33:36;;;;;;;13.75;8.20;;;;;;;10.76;52.62;101337.59;4898347;29;20055;-54
2022/04/19 04:36:05;;;;;;;12.25;8.32;;;;;;;10.77;52.96;101341.94;4894636;29;20048;-52
2022/04/19 04:38:35;;;;;;;18.63;8.57;;;;;;;10.78;53.21;101345.50;4897978;29;20082;-53
2022/04/19 04:41:09;;;;;;;15.18;8.68;;;;;;;10.80;52.82;101340.59;4898455;29;20053;-54
2022/04/19 04:43:38;;;;;;;12.38;9.05;;;;;;;10.81;52.20;101342.28;4898149;29;20500;-56
2022/04/19 04:51:39;;;;;;;14.63;9.30;;;;;;;10.76;51.85;101344.94;4898422;29;20484;-53
2022/04/19 04:54:07;;;;;;;14.90;9.63;;;;;;;10.73;52.08;101353.63;4897896;29;20084;-52
2022/04/19 04:56:35;;;;;;;15.30;8.95;;;;;;;10.68;52.45;101354.41;4890697;29;20145;-54
2022/04/19 04:59:03;;;;;;;13.98;9.10;;;;;;;10.61;52.89;101349.16;4894053;29;20459;-54
2022/04/19 05:01:31;;;;;;;12.25;8.77;;;;;;;10.57;52.86;101350.72;4898099;29;20048;-52
2022/04/19 05:03:59;;;;;;;12.63;9.15;;;;;;;10.54;52.94;101353.16;4897553;29;20057;-54
2022/04/19 05:06:27;;;;;;;14.25;9.10;;;;;;;10.47;53.12;101356.06;4882462;29;20531;-53
2022/04/19 05:08:55;;;;;;;13.50;9.30;;;;;;;10.47;53.05;101358.78;4897754;29;20058;-53
2022/04/19 05:11:23;;;;;;;13.90;9.18;;;;;;;10.47;52.80;101361.50;4897779;29;20068;-54
2022/04/19 05:13:51;;;;;;;13.75;8.80;;;;;;;10.45;52.83;101360.94;4896710;29;20044;-54
2022/04/19 05:16:19;;;;;;;14.32;8.75;;;;;;;10.44;52.76;101354.66;4897226;29;20123;-56
2022/04/19 05:18:47;;;;;;;14.93;9.45;;;;;;;10.46;52.65;101351.66;4892027;29;20127;-53
2022/04/19 05:21:14;;;;;;;14.68;8.95;;;;;;;10.46;52.52;101357.13;4882298;29;20053;-56
2022/04/19 05:23:44;;;;;;;17.52;9.68;;;;;;;10.45;52.66;101355.50;4897456;29;20044;-51
2022/04/19 05:26:15;;;;;;;15.45;9.35;;;;;;;10.45;52.70;101358.22;4896172;29;20504;-53
2022/04/19 05:28:43;;;;;;;14.45;9.60;;;;;;;10.45;52.24;101355.50;4897667;29;20048;-56
2022/04/19 05:31:12;;;;;;;14.65;9.60;;;;;;;10.49;52.45;101356.63;4232481;29;10001021;-52
2022/04/19 05:33:40;;;;;;;15.50;10.10;;;;;;;10.56;52.37;101361.88;4892193;29;20283;-52
2022/04/19 05:36:08;;;;;;;14.57;9.60;;;;;;;10.63;51.91;101355.16;4882624;29;20052;-54
2022/04/19 05:38:35;;;;;;;15.20;9.65;;;;;;;10.63;51.85;101355.16;4893903;29;20040;-49
2022/04/19 05:41:10;;;;;;;12.95;8.65;;;;;;;10.69;51.86;101355.22;4894601;29;20052;-51
2022/04/19 05:43:40;;;;;;;15.25;10.00;;;;;;;10.68;51.72;101356.28;4894203;29;20514;-54
2022/04/19 05:46:08;;;;;;;15.43;10.23;;;;;;;10.62;51.88;101353.50;4893897;29;20063;-49
2022/04/19 05:48:36;;;;;;;16.95;10.70;;;;;;;10.63;51.92;101347.00;4895403;29;20043;-51
2022/04/19 05:51:03;;;;;;;14.32;9.98;;;;;;;10.72;51.75;101354.69;4893133;29;20416;-53
2022/04/19 05:53:31;;;;;;;17.25;10.25;;;;;;;10.83;51.75;101356.47;4904903;29;20048;-52
2022/04/19 05:55:59;;;;;;;16.60;10.95;;;;;;;10.90;51.10;101359.00;4875132;29;20501;-51
2022/04/19 05:58:27;;;;;;;15.73;10.73;;;;;;;10.92;50.86;101359.53;4875719;29;20071;-48
2022/04/19 06:00:55;;;;;;;16.92;10.82;;;;;;;10.96;50.52;101357.94;4892417;29;20045;-50
2022/04/19 06:06:08;;;;;;;15.40;10.18;;;;;;;11.00;50.63;101359.91;4893432;29;20057;-48
2022/04/19 06:08:38;;;;;;;18.02;11.65;;;;;;;11.04;50.89;101355.59;4894294;29;20048;-48
2022/04/19 06:11:11;;;;;;;18.00;11.60;;;;;;;11.04;50.05;101361.06;4893989;29;20045;-48
2022/04/19 06:13:41;;;;;;;13.80;10.23;;;;;;;11.07;50.70;101363.25;4893684;29;20051;-48
2022/04/19 06:16:09;;;;;;;17.73;11.43;;;;;;;11.11;50.50;101362.72;4892970;29;20503;-48
2022/04/19 06:18:41;;;;;;;16.50;11.48;;;;;;;11.18;50.13;101363.34;4893580;29;20048;-49
2022/04/19 06:21:13;;;;;;;20.38;11.88;;;;;;;11.23;50.02;101363.38;4893583;29;20516;-49
2022/04/19 06:23:41;;;;;;;20.60;11.82;;;;;;;11.23;50.23;101366.13;4878223;29;20725;-48
2022/04/19 06:26:09;;;;;;;18.83;11.68;;;;;;;11.22;50.40;101369.94;4876927;29;20394;-46
2022/04/19 06:28:37;;;;;;;20.88;12.18;;;;;;;11.23;50.73;101368.84;4878238;29;20048;-48
2022/04/19 06:31:14;;;;;;;17.35;11.27;;;;;;;11.31;50.94;101373.84;4891741;29;20053;-47
2022/04/19 06:33:45;;;;;;;19.63;11.65;;;;;;;11.41;50.32;101371.19;4874802;29;20056;-48
2022/04/19 06:36:14;;;;;;;16.20;10.50;;;;;;;11.44;50.60;101378.84;4875102;29;20354;-49
2022/04/19 06:38:41;;;;;;;17.45;10.40;;;;;;;11.48;50.49;101382.72;4878026;29;20037;-48
2022/04/19 06:41:11;;;;;;;20.95;12.10;;;;;;;11.52;50.40;101381.13;4893247;29;20054;-48
2022/04/19 06:43:41;;;;;;;18.45;11.88;;;;;;;11.59;50.61;101380.06;4893833;29;20049;-53
2022/04/19 06:46:19;;;;;;;23.80;12.95;;;;;;;11.60;50.81;101382.53;4892674;29;20076;-50
2022/04/19 06:48:58;;;;;;;16.33;11.57;;;;;;;11.63;50.32;101381.19;4893638;29;20448;-49
2022/04/19 06:51:26;;;;;;;18.88;12.30;;;;;;;11.64;50.46;101378.22;4892891;29;20104;-48
2022/04/19 06:54:02;;;;;;;20.23;12.33;;;;;;;11.70;50.13;101388.06;4893352;29;20067;-49
2022/04/19 06:56:39;;;;;;;23.10;10.90;;;;;;;11.81;50.76;101385.41;4894648;29;20080;-47
2022/04/19 06:59:08;;;;;;;21.08;12.05;;;;;;;11.90;50.01;101376.50;4893443;29;20048;-48
2022/04/19 07:01:39;;;;;;;17.35;11.52;;;;;;;11.96;49.19;101379.28;4894545;29;20080;-50
2022/04/19 07:04:36;;;;;;;20.90;12.27;;;;;;;12.03;49.33;101386.16;4883028;29;20056;-49
2022/04/19 07:07:08;;;;;;;18.50;11.25;;;;;;;12.10;48.46;101385.91;4890210;29;20045;-48
2022/04/19 07:09:37;;;;;;;17.10;10.93;;;;;;;12.15;48.73;101383.22;4874881;29;20716;-48
2022/04/19 07:12:07;;;;;;;16.13;10.63;;;;;;;12.23;48.44;101384.63;4874491;29;20045;-49
2022/04/19 07:14:40;;;;;;;16.63;10.50;;;;;;;12.27;48.87;101381.09;4874669;29;20056;-49
2022/04/19 07:17:13;;;;;;;19.38;11.07;;;;;;;12.34;48.63;101387.13;4889248;29;20057;-50
2022/04/19 07:28:07;;;;;;;23.60;12.35;;;;;;;12.61;48.22;101388.88;4880436;29;19931;-51
2022/04/19 07:30:43;;;;;;;17.38;10.35;;;;;;;12.73;46.40;101389.47;4888465;29;20468;-52
2022/04/19 07:33:11;;;;;;;20.38;11.43;;;;;;;12.81;45.87;101395.50;4878787;29;20504;-48
2022/04/19 07:35:42;;;;;;;20.80;12.40;;;;;;;12.83;46.13;101382.41;4886444;29;20155;-50
2022/04/19 07:38:10;;;;;;;20.23;12.68;;;;;;;12.86;47.27;101395.53;4896317;29;20109;-48
2022/04/19 07:40:58;;;;;;;22.95;12.15;;;;;;;12.88;47.58;101394.16;4896961;29;20079;-53
2022/04/19 07:43:26;;;;;;;16.23;10.80;;;;;;;12.91;46.24;101395.53;4895533;29;20527;-52
2022/04/19 07:45:54;;;;;;;17.00;11.38;;;;;;;12.94;46.56;101397.72;4895530;29;20067;-49
2022/04/19 07:48:21;;;;;;;17.10;10.32;;;;;;;13.01;45.71;101390.06;4896292;29;20841;-50
2022/04/19 07:50:50;;;;;;;20.75;11.93;;;;;;;13.06;45.53;101398.31;4911445;29;20060;-48
2022/04/19 07:53:17;;;;;;;16.45;9.32;;;;;;;13.08;45.47;101396.13;4909942;29;20040;-52
2022/04/19 07:55:45;;;;;;;17.40;9.95;;;;;;;13.10;44.48;101393.94;4895685;29;20057;-48
2022/04/19 07:58:13;;;;;;;15.23;8.57;;;;;;;13.13;44.59;101398.88;4897391;29;20539;-50
2022/04/19 08:00:42;;;;;;;15.85;9.70;;;;;;;13.18;44.34;101407.09;4895840;29;20093;-48
2022/04/19 08:03:10;;;;;;;17.60;8.63;;;;;;;13.24;43.68;101404.38;4896178;29;20044;-51
2022/04/19 08:05:39;;;;;;;16.17;9.25;;;;;;;13.32;43.51;101401.13;4896016;29;20036;-51
2022/04/19 08:08:07;;;;;;;15.43;7.78;;;;;;;13.35;44.12;101406.06;4897328;29;20040;-48
2022/04/19 08:10:35;;;;;;;17.00;8.50;;;;;;;13.40;43.19;101400.59;4898325;29;20424;-48
2022/04/19 08:13:06;;;;;;;15.15;9.40;;;;;;;13.42;43.81;101401.13;4898408;29;20556;-48
2022/04/19 08:15:34;;;;;;;16.52;8.82;;;;;;;13.46;43.79;101395.94;4898735;29;20048;-51
2022/04/19 08:18:07;;;;;;;15.60;8.40;;;;;;;13.52;43.34;101392.94;4899126;29;20045;-50
2022/04/19 08:20:36;;;;;;;23.85;10.32;;;;;;;13.56;43.99;101391.25;4879103;29;20045;-50
2022/04/19 08:23:04;;;;;;;18.50;9.57;;;;;;;13.58;43.61;101394.56;4881454;29;20049;-50
2022/04/19 08:25:34;;;;;;;15.40;8.98;;;;;;;13.60;43.47;101389.63;4881008;29;20058;-49
2022/04/19 08:28:02;;;;;;;15.15;9.02;;;;;;;13.61;43.67;101394.03;4887526;29;20036;-50
2022/04/19 08:30:30;;;;;;;14.60;8.10;;;;;;;13.66;44.13;101386.88;4879602;29;20045;-49
2022/04/19 08:33:00;;;;;;;16.92;10.43;;;;;;;13.68;43.99;101381.97;4880062;29;20402;-47
2022/04/19 08:35:28;;;;;;;17.73;10.25;;;;;;;13.72;43.29;101383.06;4898159;29;20049;-47
2022/04/19 08:37:56;;;;;;;18.90;11.27;;;;;;;13.75;43.88;101388.78;4929967;29;20040;-49
2022/04/19 08:40:26;;;;;;;16.65;8.60;;;;;;;13.83;43.33;101379.22;4897762;29;20056;-49
2022/04/19 08:42:57;;;;;;;18.13;9.10;;;;;;;13.85;43.62;101380.59;4898606;29;20058;-48
2022/04/19 08:45:26;;;;;;;16.15;10.57;;;;;;;13.96;42.81;101384.13;4899228;29;20052;-49
2022/04/19 08:47:57;;;;;;;12.75;8.07;;;;;;;14.06;42.70;101384.09;4899392;29;20056;-49
2022/04/19 08:50:25;;;;;;;14.98;8.43;;;;;;;14.09;43.33;101376.41;4897756;29;20048;-49
2022/04/19 08:58:30;;;;;;;12.48;7.63;;;;;;;14.21;42.24;101385.16;4899880;29;20059;-49
2022/04/19 09:00:57;;;;;;;15.00;9.20;;;;;;;14.22;42.09;101378.59;4899190;29;20500;-51
2022/04/19 09:03:25;;;;;;;14.95;6.50;;;;;;;14.24;48.42;101381.88;4898961;29;20059;-49
2022/04/19 09:05:53;;;;;;;13.98;7.50;;;;;;;14.25;42.43;101381.56;4898298;29;20408;-50
2022/04/19 09:08:21;;;;;;;14.40;6.78;;;;;;;14.28;42.91;101382.94;4898970;29;20064;-51
2022/04/19 09:10:50;;;;;;;14.05;7.88;;;;;;;14.30;43.28;101382.66;4899342;29;20530;-50
2022/04/19 09:13:21;;;;;;;14.35;7.05;;;;;;;14.33;43.29;101376.59;4898887;29;20045;-50
2022/04/19 09:15:52;;;;;;;16.08;8.13;;;;;;;14.52;42.23;101387.78;4899288;29;20127;-50
2022/04/19 09:18:31;;;;;;;18.33;7.68;;;;;;;14.63;42.11;101384.75;4898811;29;20044;-54
2022/04/19 09:21:00;;;;;;;15.05;8.13;;;;;;;14.58;42.37;101381.22;4898000;29;20051;-49
2022/04/19 09:23:30;;;;;;;14.85;8.23;;;;;;;14.59;43.52;101374.63;4898790;29;20132;-50
2022/04/19 09:25:59;;;;;;;14.43;7.78;;;;;;;14.64;43.04;101382.81;4897439;29;20527;-50
2022/04/19 09:28:28;;;;;;;16.80;8.35;;;;;;;14.63;41.67;101372.97;4898042;29;20104;-51
2022/04/19 09:30:58;;;;;;;12.70;6.60;;;;;;;14.65;41.40;101368.03;4898668;29;20048;-49
2022/04/19 09:33:30;;;;;;;20.00;8.48;;;;;;;14.71;41.81;101372.38;4897072;29;20045;-48
2022/04/19 09:36:00;;;;;;;18.13;8.38;;;;;;;14.70;42.27;101370.72;4897575;29;20117;-46
2022/04/19 09:38:37;;;;;;;18.03;7.57;;;;;;;14.72;42.07;101363.06;4898581;29;20048;-53
2022/04/19 09:41:06;;;;;;;13.32;6.18;;;;;;;14.88;41.40;101352.78;4896738;29;20052;-52
2022/04/19 09:44:05;;;;;;;13.30;7.10;;;;;;;14.96;41.16;101362.34;4898715;29;20044;-50
2022/04/19 09:46:33;;;;;;;13.63;7.22;;;;;;;14.93;40.79;101346.44;4898475;29;20503;-49
2022/04/19 09:49:01;;;;;;;13.40;6.15;;;;;;;14.95;40.62;101352.47;4897076;29;20093;-49
2022/04/19 09:51:33;;;;;;;14.93;7.45;;;;;;;14.90;40.96;101356.88;4898199;29;20495;-51
2022/04/19 09:54:01;;;;;;;14.43;6.65;;;;;;;14.89;40.87;101346.22;4898384;29;20071;-48
2022/04/19 09:56:36;;;;;;;12.05;7.03;;;;;;;14.91;40.58;101347.56;4897837;29;20051;-49
2022/04/19 09:59:17;;;;;;;16.60;6.65;;;;;;;14.98;41.20;101341.75;4879692;29;20105;-48
2022/04/19 10:10:07;;;;;;;13.60;5.88;;;;;;;15.21;43.45;101344.88;4898061;29;20056;-50
2022/04/19 10:12:36;;;;;;;11.75;5.88;;;;;;;15.16;41.45;101337.50;4897087;29;20049;-53
2022/04/19 10:15:07;;;;;;;14.43;6.55;;;;;;;15.19;41.48;101339.66;4896642;29;20131;-52
2022/04/19 10:17:36;;;;;;;12.73;6.88;;;;;;;15.22;41.03;101339.09;4898125;29;20045;-52
2022/04/19 10:20:05;;;;;;;12.27;5.20;;;;;;;15.27;43.31;101341.81;4897119;29;20076;-51
2022/04/19 10:22:33;;;;;;;12.27;6.70;;;;;;;15.26;40.82;101334.69;4897868;29;20496;-47
2022/04/19 10:25:03;;;;;;;17.08;6.97;;;;;;;15.25;40.90;101338.53;4897995;29;20123;-48
2022/04/19 10:27:36;;;;;;;13.40;6.47;;;;;;;15.31;41.16;101342.06;4897610;29;20040;-49
2022/04/19 10:30:05;;;;;;;11.45;5.55;;;;;;;15.42;41.25;101334.56;4898064;29;20074;-53
2022/04/19 10:32:36;;;;;;;12.23;5.65;;;;;;;15.55;42.14;101339.38;4897995;29;20056;-52
2022/04/19 10:35:05;;;;;;;11.73;6.32;;;;;;;15.50;39.85;101328.44;4898218;29;20049;-54
2022/04/19 10:37:33;;;;;;;12.20;6.57;;;;;;;15.47;40.13;101329.84;4896966;29;20048;-47
2022/04/19 10:40:05;;;;;;;13.20;6.88;;;;;;;15.49;39.96;101335.88;4897457;29;20049;-46
2022/04/19 10:42:38;;;;;;;12.25;6.18;;;;;;;15.61;39.91;101330.00;4898049;29;20049;-48
2022/04/19 10:45:15;;;;;;;11.73;6.45;;;;;;;15.68;39.93;101327.72;4897790;29;20100;-47
2022/04/19 10:47:54;;;;;;;11.60;6.40;;;;;;;15.72;39.14;101326.03;4897829;29;20131;-47
2022/04/19 10:50:29;;;;;;;12.25;5.95;;;;;;;15.75;39.52;101335.63;4897288;29;20051;-47
2022/04/19 10:53:03;;;;;;;11.88;6.00;;;;;;;15.75;38.95;101330.13;4901392;29;20489;-48
2022/04/19 10:55:41;;;;;;;13.60;6.35;;;;;;;15.67;38.40;101328.81;4901698;29;20052;-45
2022/04/19 10:58:23;;;;;;;13.38;6.50;;;;;;;15.63;39.66;101315.94;4901272;29;20041;-46
2022/04/19 11:00:56;;;;;;;12.60;6.50;;;;;;;15.73;39.30;101315.91;4901604;29;20083;-46
2022/04/19 11:03:39;;;;;;;13.35;6.97;;;;;;;15.83;40.42;101320.47;4900673;29;20051;-52
2022/04/19 11:06:28;;;;;;;13.57;7.03;;;;;;;15.92;39.29;101313.19;4901422;29;20070;-45
2022/04/19 11:09:16;;;;;;;20.35;6.97;;;;;;;15.93;38.79;101317.59;4900887;29;20037;-49
2022/04/19 11:11:45;;;;;;;14.95;7.38;;;;;;;15.88;38.95;101312.97;4884679;29;20045;-48
2022/04/19 11:14:30;;;;;;;16.05;7.15;;;;;;;15.95;39.16;101312.63;4899562;29;20040;-48
2022/04/19 11:17:27;;;;;;;14.90;7.50;;;;;;;15.99;39.00;101308.16;4901154;29;20059;-50
2022/04/19 11:20:10;;;;;;;13.45;7.47;;;;;;;15.95;38.17;101313.44;4900881;29;20108;-49
2022/04/19 11:22:46;;;;;;;15.73;7.32;;;;;;;15.90;38.79;101313.50;4901190;29;20053;-47
2022/04/19 11:25:15;;;;;;;14.18;6.90;;;;;;;15.95;38.95;101316.19;4901078;29;20492;-46
2022/04/19 11:27:55;;;;;;;13.73;7.20;;;;;;;16.02;37.95;101307.59;4900345;29;20045;-48
2022/04/19 11:30:24;;;;;;;13.48;7.07;;;;;;;16.02;38.24;101312.25;4900871;29;20059;-49
2022/04/19 11:32:56;;;;;;;12.27;6.82;;;;;;;16.04;38.35;101293.56;4900745;29;20391;-47
2022/04/19 11:35:26;;;;;;;12.93;6.47;;;;;;;16.07;38.21;101299.28;4900850;29;20057;-48
2022/04/19 11:37:53;;;;;;;14.10;7.30;;;;;;;16.14;38.66;101287.94;4900797;29;20526;-46
2022/04/19 11:48:50;;;;;;;14.15;7.28;;;;;;;16.28;37.45;101294.34;4895876;29;20051;-48
2022/04/19 11:51:22;;;;;;;15.32;7.10;;;;;;;16.22;37.37;101291.97;4900161;29;20052;-49
2022/04/19 11:53:50;;;;;;;13.40;7.40;;;;;;;16.15;37.97;101290.38;4887242;29;20049;-47
2022/04/19 11:56:18;;;;;;;13.23;6.30;;;;;;;16.18;37.95;101292.53;4900656;29;20135;-52
2022/04/19 11:58:52;;;;;;;12.00;5.90;;;;;;;16.23;39.23;101285.34;4900041;29;20048;-49
2022/04/19 12:01:20;;;;;;;13.05;7.22;;;;;;;16.33;38.45;101296.22;4900216;29;20080;-50
2022/04/19 12:03:48;;;;;;;13.80;7.10;;;;;;;16.35;37.97;101288.47;4898805;29;20044;-50
2022/04/19 12:06:18;;;;;;;14.63;7.05;;;;;;;16.38;38.18;101296.16;4899974;29;20048;-47
2022/04/19 12:08:51;;;;;;;14.43;7.05;;;;;;;16.40;37.92;101297.50;4899106;29;20048;-52
2022/04/19 12:11:26;;;;;;;14.20;7.38;;;;;;;16.41;37.74;101284.56;4899271;29;20492;-51
2022/04/19 12:13:56;;;;;;;14.07;7.75;;;;;;;16.41;36.85;101287.31;4899109;29;20055;-49
2022/04/19 12:16:31;;;;;;;14.88;7.90;;;;;;;16.45;36.64;101287.53;4899875;29;20056;-50
2022/04/19 12:19:01;;;;;;;17.23;7.78;;;;;;;16.52;37.80;101288.78;4880467;29;20109;-53